createdAt,value
2018-03-03T00:01:23.415Z,32.07
2018-03-03T00:03:51.870Z,33.63
2018-03-03T00:06:19.943Z,42.57
2018-03-03T00:08:47.482Z,43.00
2018-03-03T00:11:15.167Z,38.97
2018-03-03T00:13:42.694Z,40.83
2018-03-03T00:16:11.006Z,34.17
2018-03-03T00:18:38.549Z,42.63
2018-03-03T00:21:06.962Z,45.33
2018-03-03T00:23:34.556Z,44.60
2018-03-03T00:26:03.069Z,43.17
2018-03-03T00:28:30.748Z,44.00
2018-03-03T00:30:58.410Z,44.20
2018-03-03T00:33:26.277Z,44.07
2018-03-03T00:35:54.349Z,33.27
2018-03-03T00:38:22.512Z,44.27
2018-03-03T00:40:50.608Z,41.37
2018-03-03T00:43:18.145Z,46.77
2018-03-03T00:45:45.707Z,46.53
2018-03-03T00:48:13.275Z,42.73
2018-03-03T00:50:40.814Z,45.57
2018-03-03T00:53:08.395Z,41.77
2018-03-03T00:55:35.930Z,42.97
2018-03-03T00:58:03.497Z,44.27
2018-03-03T01:00:31.193Z,42.70
2018-03-03T01:02:58.844Z,40.73
2018-03-03T01:05:26.836Z,41.90
2018-03-03T01:07:55.292Z,42.17
2018-03-03T01:10:23.598Z,42.70
2018-03-03T01:12:52.972Z,43.20
2018-03-03T01:15:22.687Z,42.87
2018-03-03T01:17:50.373Z,44.37
2018-03-03T01:20:17.954Z,41.20
2018-03-03T01:22:45.484Z,43.50
2018-03-03T01:25:13.032Z,46.07
2018-03-03T01:27:40.581Z,42.60
2018-03-03T01:30:08.131Z,43.57
2018-03-03T01:32:35.662Z,27.97
2018-03-03T01:35:03.977Z,45.13
2018-03-03T01:37:31.644Z,42.77
2018-03-03T01:40:00.277Z,43.67
2018-03-03T01:42:27.910Z,40.97
2018-03-03T01:44:56.578Z,42.10
2018-03-03T01:47:25.244Z,41.93
2018-03-03T01:49:53.886Z,44.07
2018-03-03T01:52:22.091Z,44.23
2018-03-03T01:54:50.479Z,37.17
2018-03-03T01:57:19.150Z,45.37
2018-03-03T01:59:46.855Z,42.83
2018-03-03T02:02:14.405Z,33.97
2018-03-03T02:04:41.960Z,39.63
2018-03-03T02:07:09.488Z,44.23
2018-03-03T02:09:37.778Z,38.87
2018-03-03T02:12:06.092Z,42.90
2018-03-03T02:14:33.708Z,42.13
2018-03-03T02:17:02.137Z,42.10
2018-03-03T02:19:29.968Z,40.97
2018-03-03T02:21:58.476Z,45.77
2018-03-03T02:24:26.328Z,44.73
2018-03-03T02:26:54.318Z,45.77
2018-03-03T02:29:22.597Z,42.07
2018-03-03T02:31:51.592Z,43.20
2018-03-03T02:34:19.184Z,45.33
2018-03-03T02:36:48.082Z,45.97
2018-03-03T02:39:15.635Z,42.27
2018-03-03T02:41:43.172Z,43.80
2018-03-03T02:44:10.739Z,44.20
2018-03-03T02:46:38.262Z,40.80
2018-03-03T02:49:05.817Z,42.90
2018-03-03T02:51:33.477Z,37.67
2018-03-03T02:54:02.086Z,41.03
2018-03-03T02:56:29.833Z,43.77
2018-03-03T02:58:57.506Z,42.83
2018-03-03T03:01:25.813Z,34.67
2018-03-03T03:03:54.155Z,44.40
2018-03-03T03:06:21.745Z,34.63
2018-03-03T03:08:50.403Z,43.80
2018-03-03T03:11:17.997Z,44.13
2018-03-03T03:13:45.536Z,47.17
2018-03-03T03:16:13.111Z,41.17
2018-03-03T03:18:40.633Z,44.80
2018-03-03T03:21:08.199Z,42.50
2018-03-03T03:23:35.725Z,45.20
2018-03-03T03:26:03.416Z,42.63
2018-03-03T03:28:31.025Z,38.77
2018-03-03T03:30:58.725Z,42.97
2018-03-03T03:33:26.529Z,44.60
2018-03-03T03:35:54.761Z,38.77
2018-03-03T03:38:23.699Z,40.10
2018-03-03T03:40:51.667Z,38.30
2018-03-03T03:43:19.328Z,47.83
2018-03-03T03:45:47.791Z,41.80
2018-03-03T03:48:15.370Z,43.43
2018-03-03T03:50:42.916Z,42.00
2018-03-03T03:53:10.462Z,42.77
2018-03-03T03:55:38.149Z,45.20
2018-03-03T03:58:05.713Z,41.60
2018-03-03T04:00:33.990Z,43.97
2018-03-03T04:03:01.625Z,41.33
2018-03-03T04:05:29.418Z,42.80
2018-03-03T04:07:57.420Z,41.17
2018-03-03T04:10:26.365Z,29.03
2018-03-03T04:12:54.840Z,42.63
2018-03-03T04:15:23.480Z,32.17
2018-03-03T04:17:52.853Z,44.03
2018-03-03T04:20:20.719Z,31.90
2018-03-03T04:22:48.464Z,41.30
2018-03-03T04:25:16.107Z,40.47
2018-03-03T04:27:44.687Z,41.73
2018-03-03T04:30:13.214Z,44.23
2018-03-03T04:32:41.001Z,43.17
2018-03-03T04:35:09.000Z,43.97
2018-03-03T04:37:36.815Z,42.97
2018-03-03T04:40:04.399Z,43.63
2018-03-03T04:42:31.970Z,42.57
2018-03-03T04:45:00.167Z,42.73
2018-03-03T04:47:28.501Z,41.63
2018-03-03T04:49:56.024Z,41.87
2018-03-03T04:52:23.584Z,39.47
2018-03-03T04:54:51.121Z,43.70
2018-03-03T04:57:18.932Z,42.10
2018-03-03T04:59:50.925Z,43.07
2018-03-03T05:02:20.007Z,43.67
2018-03-03T05:04:53.307Z,37.37
2018-03-03T05:10:29.845Z,44.27
2018-03-03T05:12:58.185Z,42.33
2018-03-03T05:15:37.702Z,42.50
2018-03-03T05:18:09.895Z,44.83
2018-03-03T05:20:53.401Z,39.90
2018-03-03T05:23:27.045Z,40.27
2018-03-03T05:29:08.614Z,40.70
2018-03-03T05:31:41.770Z,43.57
2018-03-03T05:37:37.156Z,42.43
2018-03-03T05:40:21.694Z,39.23
2018-03-03T05:42:55.222Z,39.53
2018-03-03T05:48:33.304Z,43.73
2018-03-03T05:54:04.318Z,40.67
2018-03-03T05:56:37.737Z,44.50
2018-03-03T05:59:09.234Z,43.33
2018-03-03T06:04:43.956Z,45.93
2018-03-03T06:07:21.597Z,47.63
2018-03-03T06:09:51.599Z,38.37
2018-03-03T06:12:19.468Z,42.93
2018-03-03T06:14:47.347Z,43.67
2018-03-03T06:17:15.951Z,41.20
2018-03-03T06:19:43.792Z,45.17
2018-03-03T06:22:12.062Z,42.50
2018-03-03T06:24:40.231Z,40.93
2018-03-03T06:27:07.900Z,43.17
2018-03-03T06:29:35.540Z,37.87
2018-03-03T06:32:03.077Z,42.83
2018-03-03T06:34:31.505Z,35.90
2018-03-03T06:36:59.045Z,42.50
2018-03-03T06:39:26.593Z,42.57
2018-03-03T06:41:55.555Z,42.90
2018-03-03T06:44:24.353Z,44.37
2018-03-03T06:46:52.654Z,42.67
2018-03-03T06:49:20.964Z,37.00
2018-03-03T06:51:48.525Z,44.00
2018-03-03T06:54:16.152Z,44.63
2018-03-03T06:56:44.354Z,42.33
2018-03-03T06:59:12.222Z,40.47
2018-03-03T07:01:40.395Z,42.67
2018-03-03T07:04:08.365Z,35.03
2018-03-03T07:06:36.951Z,36.60
2018-03-03T07:09:05.419Z,42.77
2018-03-03T07:11:33.111Z,45.03
2018-03-03T07:14:00.773Z,42.93
2018-03-03T07:16:28.340Z,41.87
2018-03-03T07:18:55.905Z,42.67
2018-03-03T07:21:23.538Z,44.07
2018-03-03T07:23:51.090Z,39.27
2018-03-03T07:26:18.621Z,39.77
2018-03-03T07:28:47.098Z,40.70
2018-03-03T07:31:14.682Z,37.50
2018-03-03T07:33:42.353Z,40.10
2018-03-03T07:36:10.101Z,39.37
2018-03-03T07:38:39.280Z,39.00
2018-03-03T07:41:08.297Z,40.70
2018-03-03T07:43:35.845Z,38.10
2018-03-03T07:46:04.278Z,41.20
2018-03-03T07:48:32.049Z,36.77
2018-03-03T07:50:59.907Z,42.20
2018-03-03T07:53:27.436Z,38.30
2018-03-03T07:55:54.993Z,40.33
2018-03-03T07:58:31.396Z,35.93
2018-03-03T08:00:59.142Z,39.83
2018-03-03T08:03:26.701Z,36.30
2018-03-03T08:05:54.238Z,39.43
2018-03-03T08:08:21.783Z,36.30
2018-03-03T08:10:50.081Z,39.17
2018-03-03T08:13:17.874Z,39.77
2018-03-03T08:15:45.633Z,32.90
2018-03-03T08:18:13.262Z,38.67
2018-03-03T08:20:41.054Z,40.27
2018-03-03T08:23:08.885Z,38.67
2018-03-03T08:25:38.430Z,37.33
2018-03-03T08:28:07.914Z,40.40
2018-03-03T08:30:36.203Z,35.47
2018-03-03T08:33:03.907Z,33.70
2018-03-03T08:35:31.864Z,35.43
2018-03-03T08:37:59.467Z,34.70
2018-03-03T08:40:28.005Z,35.17
2018-03-03T08:42:55.579Z,35.70
2018-03-03T08:45:23.416Z,32.63
2018-03-03T08:47:50.965Z,31.03
2018-03-03T08:50:18.498Z,31.60
2018-03-03T08:52:47.016Z,33.40
2018-03-03T08:55:14.563Z,32.03
2018-03-03T08:57:42.741Z,28.67
2018-03-03T09:00:11.349Z,31.37
2018-03-03T09:02:38.949Z,31.43
2018-03-03T09:05:06.873Z,32.17
2018-03-03T09:07:36.167Z,29.97
2018-03-03T09:10:04.319Z,29.27
2018-03-03T09:12:32.523Z,28.63
2018-03-03T09:15:01.610Z,28.57
2018-03-03T09:17:29.970Z,26.73
2018-03-03T09:19:57.551Z,25.50
2018-03-03T09:22:25.077Z,25.93
2018-03-03T09:24:53.386Z,27.27
2018-03-03T09:27:20.912Z,27.50
2018-03-03T09:29:48.458Z,27.00
2018-03-03T09:32:16.017Z,27.13
2018-03-03T09:34:43.833Z,29.30
2018-03-03T09:37:11.840Z,29.17
2018-03-03T09:39:39.716Z,30.60
2018-03-03T09:42:07.648Z,25.83
2018-03-03T09:44:35.306Z,31.13
2018-03-03T09:47:04.309Z,29.43
2018-03-03T09:49:31.998Z,28.90
2018-03-03T09:51:59.549Z,29.70
2018-03-03T09:54:27.086Z,28.83
2018-03-03T09:56:54.610Z,31.07
2018-03-03T09:59:22.924Z,29.53
2018-03-03T10:01:52.333Z,28.77
2018-03-03T10:04:18.023Z,31.13
2018-03-03T10:06:45.542Z,27.20
2018-03-03T10:09:13.293Z,31.73
2018-03-03T10:11:41.331Z,29.60
2018-03-03T10:14:08.921Z,29.53
2018-03-03T10:16:37.372Z,30.43
2018-03-03T10:19:06.612Z,29.70
2018-03-03T10:21:35.462Z,34.07
2018-03-03T10:24:04.130Z,30.37
2018-03-03T10:26:34.613Z,30.57
2018-03-03T10:29:02.546Z,27.97
2018-03-03T10:31:30.132Z,30.07
2018-03-03T10:33:57.670Z,34.97
2018-03-03T10:36:25.210Z,30.20
2018-03-03T10:38:52.747Z,37.97
2018-03-03T10:41:21.063Z,32.23
2018-03-03T10:43:49.033Z,36.23
2018-03-03T10:46:16.576Z,29.93
2018-03-03T10:48:44.389Z,35.10
2018-03-03T10:51:12.049Z,38.53
2018-03-03T10:53:39.968Z,36.83
2018-03-03T10:56:07.548Z,37.13
2018-03-03T10:58:36.823Z,39.87
2018-03-03T11:01:05.730Z,35.70
2018-03-03T11:03:35.498Z,37.83
2018-03-03T11:06:03.367Z,39.87
2018-03-03T11:08:30.893Z,34.53
2018-03-03T11:10:59.800Z,38.20
2018-03-03T11:13:27.335Z,40.10
2018-03-03T11:15:54.878Z,34.30
2018-03-03T11:18:22.401Z,37.60
2018-03-03T11:20:49.945Z,34.10
2018-03-03T11:23:17.570Z,33.73
2018-03-03T11:25:46.363Z,32.43
2018-03-03T11:28:14.005Z,27.63
2018-03-03T11:30:41.804Z,37.27
2018-03-03T11:33:09.552Z,37.63
2018-03-03T11:35:37.224Z,37.50
2018-03-03T11:38:04.965Z,38.30
2018-03-03T11:40:33.499Z,39.83
2018-03-03T11:43:02.273Z,39.03
2018-03-03T11:45:29.833Z,37.87
2018-03-03T11:47:57.375Z,30.27
2018-03-03T11:50:24.893Z,37.17
2018-03-03T11:52:53.308Z,34.80
2018-03-03T11:55:20.849Z,31.20
2018-03-03T11:57:48.396Z,38.53
2018-03-03T12:00:16.907Z,34.13
2018-03-03T12:02:44.574Z,38.07
2018-03-03T12:05:12.384Z,32.60
2018-03-03T12:07:40.224Z,36.77
2018-03-03T12:10:07.945Z,37.00
2018-03-03T12:12:35.949Z,34.33
2018-03-03T12:15:05.115Z,37.30
2018-03-03T12:17:34.044Z,38.00
2018-03-03T12:20:02.598Z,41.30
2018-03-03T12:22:30.175Z,38.97
2018-03-03T12:24:57.709Z,34.07
2018-03-03T12:27:25.269Z,36.07
2018-03-03T12:29:53.608Z,32.30
2018-03-03T12:32:21.140Z,35.47
2018-03-03T12:34:48.761Z,35.17
2018-03-03T12:37:17.164Z,33.93
2018-03-03T12:39:45.414Z,35.73
2018-03-03T12:42:13.936Z,32.10
2018-03-03T12:44:41.621Z,32.90
2018-03-03T12:47:09.235Z,36.43
2018-03-03T12:49:37.839Z,29.30
2018-03-03T12:52:06.449Z,34.17
2018-03-03T12:54:35.628Z,36.80
2018-03-03T12:57:03.387Z,31.90
2018-03-03T12:59:31.052Z,33.50
2018-03-03T13:01:58.676Z,31.37
2018-03-03T13:04:26.989Z,34.87
2018-03-03T13:06:54.565Z,26.20
2018-03-03T13:09:22.065Z,34.30
2018-03-03T13:11:49.596Z,31.80
2018-03-03T13:14:17.149Z,23.03
2018-03-03T13:16:44.781Z,33.50
2018-03-03T13:19:12.365Z,34.27
2018-03-03T13:21:39.948Z,25.10
2018-03-03T13:24:07.981Z,27.47
2018-03-03T13:26:36.106Z,32.03
2018-03-03T13:29:04.681Z,29.50
2018-03-03T13:31:32.395Z,36.90
2018-03-03T13:33:59.921Z,31.20
2018-03-03T13:36:28.216Z,27.57
2018-03-03T13:38:55.736Z,34.67
2018-03-03T13:41:23.309Z,29.43
2018-03-03T13:43:50.826Z,32.43
2018-03-03T13:46:18.360Z,32.63
2018-03-03T13:48:46.145Z,30.90
2018-03-03T13:51:13.849Z,31.43
2018-03-03T13:53:41.667Z,34.97
2018-03-03T13:56:09.272Z,21.23
2018-03-03T13:58:38.048Z,30.70
2018-03-03T14:01:05.812Z,32.73
2018-03-03T14:03:33.545Z,33.67
2018-03-03T14:06:01.216Z,35.23
2018-03-03T14:08:28.745Z,37.80
2018-03-03T14:10:57.054Z,31.27
2018-03-03T14:13:24.577Z,28.93
2018-03-03T14:15:52.900Z,35.93
2018-03-03T14:18:20.433Z,27.00
2018-03-03T14:20:48.020Z,32.70
2018-03-03T14:23:15.553Z,33.60
2018-03-03T14:25:43.228Z,35.67
2018-03-03T14:28:11.278Z,26.13
2018-03-03T14:30:38.950Z,34.37
2018-03-03T14:33:07.085Z,31.60
2018-03-03T14:35:35.100Z,26.13
2018-03-03T14:38:02.797Z,34.20
2018-03-03T14:40:30.423Z,35.30
2018-03-03T14:42:57.962Z,35.33
2018-03-03T14:45:25.501Z,28.03
2018-03-03T14:47:53.049Z,33.83
2018-03-03T14:50:20.609Z,34.47
2018-03-03T14:52:48.129Z,32.27
2018-03-03T14:55:15.714Z,32.63
2018-03-03T14:57:43.625Z,25.23
2018-03-03T15:00:12.069Z,26.10
2018-03-03T15:02:40.724Z,34.90
2018-03-03T15:05:08.685Z,34.00
2018-03-03T15:07:36.442Z,32.83
2018-03-03T15:10:04.224Z,29.47
2018-03-03T15:12:34.020Z,33.63
2018-03-03T15:15:01.584Z,33.07
2018-03-03T15:17:29.187Z,35.00
2018-03-03T15:19:56.713Z,31.53
2018-03-03T15:22:24.240Z,32.90
2018-03-03T15:24:52.529Z,29.57
2018-03-03T15:27:20.828Z,28.90
2018-03-03T15:29:48.369Z,28.20
2018-03-03T15:32:15.911Z,32.87
2018-03-03T15:34:44.508Z,29.13
2018-03-03T15:37:12.912Z,24.10
2018-03-03T15:39:40.602Z,33.70
2018-03-03T15:42:08.339Z,33.63
2018-03-03T15:44:36.687Z,33.43
2018-03-03T15:47:04.790Z,29.07
2018-03-03T15:49:34.309Z,32.50
2018-03-03T15:52:02.164Z,28.43
2018-03-03T15:54:29.743Z,30.57
2018-03-03T15:56:57.273Z,26.60
2018-03-03T15:59:24.795Z,23.97
2018-03-03T16:01:53.116Z,32.00
2018-03-03T16:04:20.637Z,32.50
2018-03-03T16:06:48.946Z,30.30
2018-03-03T16:09:16.478Z,33.27
2018-03-03T16:11:44.810Z,27.70
2018-03-03T16:14:12.899Z,28.10
2018-03-03T16:16:41.264Z,34.97
2018-03-03T16:19:09.022Z,30.17
2018-03-03T16:21:36.761Z,32.30
2018-03-03T16:24:04.881Z,32.47
2018-03-03T16:26:32.570Z,34.57
2018-03-03T16:29:00.196Z,32.93
2018-03-03T16:31:27.723Z,35.57
2018-03-03T16:33:55.922Z,34.03
2018-03-03T16:36:23.466Z,33.37
2018-03-03T16:38:50.981Z,23.83
2018-03-03T16:41:19.286Z,31.77
2018-03-03T16:43:46.845Z,25.07
2018-03-03T16:46:14.505Z,29.87
2018-03-03T16:48:42.105Z,32.63
2018-03-03T16:51:09.835Z,30.17
2018-03-03T16:53:37.453Z,37.00
2018-03-03T16:56:05.463Z,33.80
2018-03-03T16:58:34.067Z,34.17
2018-03-03T17:01:01.766Z,33.97
2018-03-03T17:03:29.339Z,33.83
2018-03-03T17:05:56.897Z,28.20
2018-03-03T17:08:25.206Z,27.13
2018-03-03T17:10:52.749Z,34.90
2018-03-03T17:13:21.059Z,31.27
2018-03-03T17:15:48.705Z,33.87
2018-03-03T17:18:16.249Z,33.37
2018-03-03T17:20:44.564Z,32.97
2018-03-03T17:23:12.217Z,31.43
2018-03-03T17:25:39.860Z,29.27
2018-03-03T17:28:07.588Z,31.83
2018-03-03T17:30:35.564Z,32.67
2018-03-03T17:33:03.804Z,26.50
2018-03-03T17:35:31.461Z,32.33
2018-03-03T17:37:59.004Z,33.57
2018-03-03T17:40:26.565Z,32.90
2018-03-03T17:42:55.053Z,33.23
2018-03-03T17:45:22.589Z,32.17
2018-03-03T17:47:50.877Z,33.13
2018-03-03T17:50:18.437Z,32.37
2018-03-03T17:52:46.008Z,33.80
2018-03-03T17:55:13.785Z,35.00
2018-03-03T17:57:41.516Z,36.23
2018-03-03T18:00:09.223Z,34.30
2018-03-03T18:02:37.400Z,33.87
2018-03-03T18:05:05.873Z,35.10
2018-03-03T18:07:34.355Z,34.17
2018-03-03T18:10:02.071Z,33.13
2018-03-03T18:12:30.386Z,34.47
2018-03-03T18:14:57.920Z,31.70
2018-03-03T18:17:25.467Z,35.40
2018-03-03T18:19:53.777Z,34.33
2018-03-03T18:22:21.321Z,35.40
2018-03-03T18:24:49.613Z,37.00
2018-03-03T18:27:17.145Z,36.33
2018-03-03T18:29:45.872Z,37.77
2018-03-03T18:32:13.658Z,39.23
2018-03-03T18:34:41.230Z,39.67
2018-03-03T18:37:08.982Z,36.87
2018-03-03T18:39:36.580Z,40.47
2018-03-03T18:42:05.208Z,37.97
2018-03-03T18:44:33.881Z,38.20
2018-03-03T18:47:01.761Z,34.93
2018-03-03T18:49:30.368Z,37.73
2018-03-03T18:51:57.920Z,39.53
2018-03-03T18:54:25.457Z,38.93
2018-03-03T18:56:52.997Z,36.73
2018-03-03T18:59:20.535Z,37.57
2018-03-03T19:01:48.117Z,40.77
2018-03-03T19:04:15.670Z,39.97
2018-03-03T19:06:44.192Z,35.47
2018-03-03T19:09:11.958Z,40.37
2018-03-03T19:11:40.149Z,42.73
2018-03-03T19:14:07.957Z,41.00
2018-03-03T19:16:36.698Z,39.10
2018-03-03T19:19:05.058Z,41.30
2018-03-03T19:21:33.869Z,39.80
2018-03-03T19:24:02.741Z,39.27
2018-03-03T19:26:30.728Z,37.40
2018-03-03T19:28:58.281Z,37.57
2018-03-03T19:31:25.806Z,39.80
2018-03-03T19:33:53.364Z,41.33
2018-03-03T19:36:21.662Z,40.20
2018-03-03T19:38:49.229Z,40.43
2018-03-03T19:41:16.790Z,40.07
2018-03-03T19:43:44.961Z,41.13
2018-03-03T19:46:12.594Z,39.07
2018-03-03T19:48:40.286Z,41.17
2018-03-03T19:51:08.980Z,39.33
2018-03-03T19:53:37.241Z,39.20
2018-03-03T19:56:05.374Z,39.27
2018-03-03T19:58:34.418Z,39.60
2018-03-03T20:01:02.490Z,42.07
2018-03-03T20:03:30.102Z,40.60
2018-03-03T20:05:57.652Z,39.47
2018-03-03T20:08:25.185Z,40.20
2018-03-03T20:10:52.736Z,36.83
2018-03-03T20:13:20.298Z,38.60
2018-03-03T20:15:47.873Z,36.87
2018-03-03T20:18:15.782Z,36.83
2018-03-03T20:20:44.341Z,35.47
2018-03-03T20:23:12.067Z,33.87
2018-03-03T20:25:40.670Z,35.73
2018-03-03T20:28:08.618Z,36.07
2018-03-03T20:30:36.210Z,33.63
2018-03-03T20:33:04.051Z,35.30
2018-03-03T20:35:31.755Z,35.80
2018-03-03T20:37:59.374Z,35.23
2018-03-03T20:40:26.930Z,37.80
2018-03-03T20:42:54.459Z,37.47
2018-03-03T20:45:22.770Z,37.40
2018-03-03T20:47:50.301Z,37.57
2018-03-03T20:50:18.613Z,37.57
2018-03-03T20:52:47.063Z,38.40
2018-03-03T20:55:15.049Z,38.10
2018-03-03T20:57:42.787Z,38.30
2018-03-03T21:00:10.572Z,39.07
2018-03-03T21:02:38.494Z,37.67
2018-03-03T21:05:07.043Z,38.50
2018-03-03T21:07:35.017Z,39.43
2018-03-03T21:10:02.979Z,38.83
2018-03-03T21:12:47.328Z,39.40
2018-03-03T21:15:14.857Z,38.47
2018-03-03T21:17:43.392Z,37.60
2018-03-03T21:20:11.126Z,38.80
2018-03-03T21:22:39.115Z,41.03
2018-03-03T21:25:07.079Z,38.77
2018-03-03T21:27:35.732Z,39.07
2018-03-03T21:30:04.091Z,38.97
2018-03-03T21:32:31.756Z,37.57
2018-03-03T21:34:59.284Z,38.33
2018-03-03T21:37:26.812Z,38.20
2018-03-03T21:39:54.353Z,38.17
2018-03-03T21:42:22.637Z,39.97
2018-03-03T21:44:50.181Z,38.93
2018-03-03T21:47:18.506Z,38.73
2018-03-03T21:49:46.053Z,38.47
2018-03-03T21:52:13.733Z,40.47
2018-03-03T21:54:41.384Z,36.87
2018-03-03T21:57:09.021Z,38.90
2018-03-03T21:59:36.648Z,38.63
2018-03-03T22:02:05.031Z,38.10
2018-03-03T22:04:33.440Z,37.53
2018-03-03T22:07:01.744Z,40.20
2018-03-03T22:09:29.311Z,39.17
2018-03-03T22:11:56.849Z,40.77
2018-03-03T22:14:24.391Z,39.10
2018-03-03T22:16:52.699Z,36.67
2018-03-03T22:19:20.225Z,38.00
2018-03-03T22:21:48.541Z,40.63
2018-03-03T22:24:16.078Z,40.93
2018-03-03T22:26:43.614Z,41.60
2018-03-03T22:29:11.935Z,38.43
2018-03-03T22:31:39.599Z,38.90
2018-03-03T22:34:07.438Z,39.70
2018-03-03T22:36:35.137Z,39.33
2018-03-03T22:39:04.219Z,40.70
2018-03-03T22:41:32.402Z,41.43
2018-03-03T22:43:59.959Z,41.13
2018-03-03T22:46:28.166Z,39.37
2018-03-03T22:48:55.733Z,39.90
2018-03-03T22:51:23.253Z,41.00
2018-03-03T22:53:50.823Z,39.80
2018-03-03T22:56:18.373Z,39.87
2018-03-03T22:58:45.901Z,41.27
2018-03-03T23:01:13.904Z,41.43
2018-03-03T23:03:41.616Z,38.07
2018-03-03T23:06:10.290Z,41.63
2018-03-03T23:08:37.878Z,40.27
2018-03-03T23:11:06.805Z,42.43
2018-03-03T23:13:34.692Z,43.50
2018-03-03T23:16:03.498Z,39.57
2018-03-03T23:18:31.225Z,41.30
2018-03-03T23:20:58.862Z,41.83
2018-03-03T23:23:26.405Z,42.90
2018-03-03T23:25:53.952Z,43.13
2018-03-03T23:28:22.260Z,41.43
2018-03-03T23:30:50.566Z,42.43
2018-03-03T23:33:18.136Z,42.20
2018-03-03T23:35:45.681Z,42.23
2018-03-03T23:38:13.405Z,43.30
2018-03-03T23:40:41.016Z,41.30
2018-03-03T23:43:08.812Z,43.37
2018-03-03T23:45:37.225Z,44.20
2018-03-03T23:48:05.755Z,43.47
2018-03-03T23:50:33.813Z,43.20
2018-03-03T23:53:01.409Z,43.17
2018-03-03T23:55:29.952Z,43.90
2018-03-03T23:57:57.505Z,44.00
